createdAt,value
2018-09-17T00:00:50.233Z,81.7
2018-09-17T00:02:50.267Z,82.1
2018-09-17T00:04:50.478Z,82.0
2018-09-17T00:06:50.671Z,82.4
2018-09-17T00:08:50.739Z,82.1
2018-09-17T00:10:49.782Z,82.3
2018-09-17T00:12:49.822Z,82.1
2018-09-17T00:14:49.817Z,82.3
2018-09-17T00:16:50.092Z,82.8
2018-09-17T00:18:50.045Z,82.7
2018-09-17T00:20:50.185Z,83.3
2018-09-17T00:22:50.185Z,83.1
2018-09-17T00:24:50.251Z,82.9
2018-09-17T00:26:50.376Z,83.0
2018-09-17T00:28:50.315Z,83.0
2018-09-17T00:30:50.357Z,83.3
2018-09-17T00:32:50.333Z,83.3
2018-09-17T00:34:50.638Z,83.4
2018-09-17T00:36:50.030Z,83.7
2018-09-17T00:38:50.107Z,84.2
2018-09-17T00:40:50.349Z,84.3
2018-09-17T00:42:50.378Z,83.7
2018-09-17T00:44:50.386Z,83.7
2018-09-17T00:46:50.615Z,83.8
2018-09-17T00:48:50.568Z,84.1
2018-09-17T00:50:50.496Z,84.0
2018-09-17T00:52:50.489Z,84.0
2018-09-17T00:54:50.442Z,84.1
2018-09-17T00:56:50.760Z,84.4
2018-09-17T00:58:49.819Z,84.1
2018-09-17T01:00:49.930Z,84.3
2018-09-17T01:02:50.129Z,84.5
2018-09-17T01:04:50.563Z,84.4
2018-09-17T01:06:49.794Z,84.4
2018-09-17T01:08:49.804Z,84.4
2018-09-17T01:10:49.894Z,84.4
2018-09-17T01:12:49.917Z,84.7
2018-09-17T01:14:49.956Z,84.2
2018-09-17T01:16:50.189Z,84.5
2018-09-17T01:18:50.183Z,84.8
2018-09-17T01:20:50.216Z,85.2
2018-09-17T01:22:50.321Z,84.7
2018-09-17T01:24:50.267Z,84.8
2018-09-17T01:26:50.512Z,84.9
2018-09-17T01:28:50.556Z,85.0
2018-09-17T01:30:50.557Z,85.3
2018-09-17T01:32:50.690Z,85.2
2018-09-17T01:34:50.068Z,85.7
2018-09-17T01:36:50.152Z,85.7
2018-09-17T01:38:50.297Z,85.5
2018-09-17T01:40:50.303Z,85.5
2018-09-17T01:42:50.308Z,85.6
2018-09-17T01:44:50.295Z,85.8
2018-09-17T01:46:50.452Z,85.8
2018-09-17T01:48:50.432Z,86.2
2018-09-17T01:50:50.360Z,86.3
2018-09-17T01:52:50.559Z,86.2
2018-09-17T01:54:50.581Z,86.3
2018-09-17T01:56:50.786Z,86.1
2018-09-17T01:58:49.829Z,85.9
2018-09-17T02:00:49.807Z,85.9
2018-09-17T02:02:49.914Z,86.2
2018-09-17T02:04:50.457Z,86.5
2018-09-17T02:06:50.585Z,86.0
2018-09-17T02:08:50.902Z,86.0
2018-09-17T02:10:49.996Z,86.3
2018-09-17T02:12:50.058Z,86.5
2018-09-17T02:14:50.050Z,86.6
2018-09-17T02:16:50.121Z,86.8
2018-09-17T02:18:50.096Z,86.5
2018-09-17T02:20:50.283Z,86.7
2018-09-17T02:22:50.461Z,86.5
2018-09-17T02:24:50.400Z,86.8
2018-09-17T02:26:50.477Z,86.6
2018-09-17T02:28:50.551Z,86.0
2018-09-17T02:30:50.529Z,86.3
2018-09-17T02:32:50.637Z,86.0
2018-09-17T02:34:50.128Z,86.2
2018-09-17T02:36:50.329Z,86.2
2018-09-17T02:38:50.512Z,86.0
2018-09-17T02:40:50.539Z,86.0
2018-09-17T02:42:50.473Z,86.2
2018-09-17T02:44:50.462Z,86.1
2018-09-17T02:46:50.639Z,85.8
2018-09-17T02:48:50.578Z,86.0
2018-09-17T02:50:50.536Z,85.8
2018-09-17T02:52:50.553Z,86.0
2018-09-17T02:54:50.491Z,85.9
2018-09-17T02:56:50.739Z,85.7
2018-09-17T02:58:49.840Z,85.7
2018-09-17T03:00:49.870Z,85.8
2018-09-17T03:02:50.018Z,86.0
2018-09-17T03:04:50.242Z,86.2
2018-09-17T03:06:50.506Z,86.3
2018-09-17T03:08:50.563Z,86.3
2018-09-17T03:10:50.616Z,86.9
2018-09-17T03:12:50.606Z,86.1
2018-09-17T03:14:50.557Z,86.4
2018-09-17T03:16:50.772Z,85.9
2018-09-17T03:18:50.762Z,86.5
2018-09-17T03:20:50.214Z,86.2
2018-09-17T03:22:50.288Z,86.7
2018-09-17T03:24:50.284Z,86.3
2018-09-17T03:26:50.471Z,86.0
2018-09-17T03:28:50.428Z,85.8
2018-09-17T03:30:50.406Z,86.3
2018-09-17T03:32:50.420Z,86.4
2018-09-17T03:34:49.811Z,86.7
2018-09-17T03:36:50.138Z,86.6
2018-09-17T03:38:50.088Z,86.8
2018-09-17T03:40:50.091Z,86.8
2018-09-17T03:42:50.036Z,86.5
2018-09-17T03:44:49.989Z,86.7
2018-09-17T03:46:50.504Z,86.4
2018-09-17T03:48:50.410Z,86.9
2018-09-17T03:50:50.373Z,87.4
2018-09-17T03:52:50.337Z,87.2
2018-09-17T03:54:50.269Z,87.0
2018-09-17T03:56:50.731Z,87.1
2018-09-17T03:58:50.713Z,87.4
2018-09-17T04:00:50.691Z,87.5
2018-09-17T04:02:49.825Z,87.7
2018-09-17T04:04:50.066Z,88.3
2018-09-17T04:06:50.211Z,88.6
2018-09-17T04:08:50.242Z,88.6
2018-09-17T04:10:50.222Z,88.7
2018-09-17T04:12:50.189Z,88.9
2018-09-17T04:14:50.219Z,89.0
2018-09-17T04:16:50.380Z,88.9
2018-09-17T04:18:50.431Z,88.7
2018-09-17T04:20:50.401Z,88.6
2018-09-17T04:22:50.388Z,88.5
2018-09-17T04:24:50.305Z,88.2
2018-09-17T04:26:50.198Z,88.3
2018-09-17T04:28:50.164Z,88.6
2018-09-17T04:30:50.098Z,88.7
2018-09-17T04:32:50.026Z,88.7
2018-09-17T04:34:50.260Z,89.1
2018-09-17T04:36:50.387Z,89.1
2018-09-17T04:38:50.397Z,89.4
2018-09-17T04:40:50.358Z,88.9
2018-09-17T04:42:50.388Z,88.9
2018-09-17T04:44:50.366Z,88.9
2018-09-17T04:46:50.491Z,89.1
2018-09-17T04:48:50.417Z,89.0
2018-09-17T04:50:50.492Z,89.2
2018-09-17T04:52:50.583Z,89.2
2018-09-17T04:54:50.560Z,89.2
2018-09-17T04:56:50.737Z,89.2
2018-09-17T04:58:50.655Z,89.2
2018-09-17T05:00:49.809Z,89.1
2018-09-17T05:02:49.960Z,89.1
2018-09-17T05:04:50.291Z,88.7
2018-09-17T05:06:50.386Z,88.8
2018-09-17T05:08:50.321Z,88.7
2018-09-17T05:10:50.253Z,88.7
2018-09-17T05:12:50.535Z,88.5
2018-09-17T05:14:50.427Z,88.5
2018-09-17T05:16:50.551Z,88.3
2018-09-17T05:18:50.497Z,88.1
2018-09-17T05:20:50.581Z,88.0
2018-09-17T05:22:50.621Z,88.1
2018-09-17T05:24:50.581Z,87.8
2018-09-17T05:26:50.291Z,87.7
2018-09-17T05:28:50.296Z,87.5
2018-09-17T05:30:50.356Z,87.3
2018-09-17T05:32:50.347Z,87.1
2018-09-17T05:34:50.696Z,87.3
2018-09-17T05:36:50.629Z,87.2
2018-09-17T05:38:50.591Z,87.0
2018-09-17T05:40:50.615Z,86.2
2018-09-17T05:42:50.563Z,85.6
2018-09-17T05:44:50.540Z,86.0
2018-09-17T05:46:49.828Z,85.4
2018-09-17T05:48:49.840Z,85.2
2018-09-17T05:50:49.925Z,84.9
2018-09-17T05:52:49.913Z,84.5
2018-09-17T05:54:49.922Z,84.4
2018-09-17T05:56:50.056Z,84.3
2018-09-17T05:58:50.015Z,84.1
2018-09-17T06:00:50.043Z,83.3
2018-09-17T06:02:50.157Z,82.6
2018-09-17T06:04:50.485Z,82.0
2018-09-17T06:06:50.910Z,73
2018-09-17T06:08:49.898Z,73
2018-09-17T06:10:49.857Z,73
2018-09-17T06:12:49.908Z,73
2018-09-17T06:14:50.113Z,73
2018-09-17T06:16:50.249Z,74
2018-09-17T06:18:50.287Z,74
2018-09-17T06:20:50.397Z,74
2018-09-17T06:22:50.359Z,74
2018-09-17T06:24:50.300Z,73
2018-09-17T06:26:50.713Z,73
2018-09-17T06:28:50.497Z,73
2018-09-17T06:30:50.544Z,73
2018-09-17T06:32:50.486Z,73
2018-09-17T06:34:49.981Z,73
2018-09-17T06:36:50.195Z,73
2018-09-17T06:38:50.305Z,73
2018-09-17T06:40:50.381Z,73
2018-09-17T06:42:50.302Z,73
2018-09-17T06:44:50.517Z,73
2018-09-17T06:46:49.785Z,73
2018-09-17T06:48:50.757Z,73
2018-09-17T06:50:49.787Z,73
2018-09-17T06:52:49.968Z,72
2018-09-17T06:54:50.002Z,72
2018-09-17T06:56:50.072Z,72
2018-09-17T06:58:50.033Z,72
2018-09-17T07:00:50.249Z,71
2018-09-17T07:02:50.223Z,71
2018-09-17T07:04:50.592Z,71
2018-09-17T07:06:49.923Z,71
2018-09-17T07:08:49.969Z,71
2018-09-17T07:10:49.967Z,71
2018-09-17T07:12:50.063Z,71
2018-09-17T07:14:50.061Z,71
2018-09-17T07:16:50.291Z,71
2018-09-17T07:18:50.260Z,71
2018-09-17T07:20:50.275Z,70
2018-09-17T07:22:50.253Z,70
2018-09-17T07:24:50.270Z,70
2018-09-17T07:26:50.491Z,70
2018-09-17T07:28:50.515Z,70
2018-09-17T07:30:50.493Z,70
2018-09-17T07:32:50.548Z,70
2018-09-17T07:34:49.931Z,70
2018-09-17T07:36:50.113Z,70
2018-09-17T07:38:50.139Z,70
2018-09-17T07:40:50.179Z,70
2018-09-17T07:42:50.396Z,70
2018-09-17T07:44:50.308Z,70
2018-09-17T07:46:50.435Z,69
2018-09-17T07:48:50.350Z,69
2018-09-17T07:50:50.318Z,69
2018-09-17T07:52:50.495Z,69
2018-09-17T07:54:50.457Z,69
2018-09-17T07:56:50.492Z,69
2018-09-17T07:58:50.633Z,69
2018-09-17T08:00:50.525Z,69
2018-09-17T08:02:50.618Z,68
2018-09-17T08:04:49.871Z,68
2018-09-17T08:06:50.126Z,68
2018-09-17T08:08:50.096Z,68
2018-09-17T08:10:50.056Z,68
2018-09-17T08:12:50.034Z,68
2018-09-17T08:14:50.193Z,68
2018-09-17T08:16:50.491Z,67
2018-09-17T08:18:50.567Z,67
2018-09-17T08:20:50.547Z,67
2018-09-17T08:22:50.558Z,67
2018-09-17T08:24:50.531Z,67
2018-09-17T08:26:50.625Z,67
2018-09-17T08:28:50.590Z,67
2018-09-17T08:30:50.512Z,66
2018-09-17T08:32:50.418Z,66
2018-09-17T08:34:49.829Z,66
2018-09-17T08:36:49.993Z,66
2018-09-17T08:38:49.953Z,66
2018-09-17T08:40:50.007Z,66
2018-09-17T08:42:50.113Z,66
2018-09-17T08:44:50.102Z,65
2018-09-17T08:46:50.229Z,65
2018-09-17T08:48:50.147Z,65
2018-09-17T08:50:50.147Z,65
2018-09-17T08:52:50.757Z,65
2018-09-17T08:54:49.856Z,65
2018-09-17T08:56:49.987Z,65
2018-09-17T08:58:50.631Z,65
2018-09-17T09:00:50.590Z,65
2018-09-17T09:02:50.555Z,65
2018-09-17T09:04:50.060Z,65
2018-09-17T09:06:50.063Z,65
2018-09-17T09:08:50.043Z,64
2018-09-17T09:10:50.030Z,64
2018-09-17T09:12:49.934Z,64
2018-09-17T09:14:49.985Z,64
2018-09-17T09:16:50.174Z,64
2018-09-17T09:18:50.133Z,64
2018-09-17T09:20:50.128Z,64
2018-09-17T09:22:50.135Z,64
2018-09-17T09:24:50.108Z,64
2018-09-17T09:26:50.284Z,63
2018-09-17T09:28:50.348Z,64
2018-09-17T09:30:50.733Z,64
2018-09-17T09:32:49.836Z,63
2018-09-17T09:34:50.358Z,63
2018-09-17T09:36:50.507Z,63
2018-09-17T09:38:50.497Z,63
2018-09-17T09:40:50.482Z,63
2018-09-17T09:42:50.422Z,62
2018-09-17T09:44:50.416Z,61
2018-09-17T09:46:50.616Z,61
2018-09-17T09:48:50.544Z,61
2018-09-17T09:50:50.583Z,60
2018-09-17T09:52:51.160Z,61
2018-09-17T09:54:50.193Z,59
2018-09-17T09:56:49.900Z,59
2018-09-17T09:58:49.901Z,59
2018-09-17T10:00:49.961Z,58
2018-09-17T10:02:50.008Z,58
2018-09-17T10:04:50.283Z,58
2018-09-17T10:06:50.367Z,58
2018-09-17T10:08:50.314Z,58
2018-09-17T10:10:50.576Z,58
2018-09-17T10:12:50.510Z,57
2018-09-17T10:14:50.481Z,57
2018-09-17T10:16:50.737Z,54
2018-09-17T10:18:50.699Z,54
2018-09-17T10:20:49.803Z,53
2018-09-17T10:22:49.760Z,52
2018-09-17T10:24:49.934Z,52
2018-09-17T10:26:50.050Z,52
2018-09-17T10:28:50.002Z,52
2018-09-17T10:30:50.113Z,53
2018-09-17T10:32:50.042Z,52
2018-09-17T10:34:50.371Z,54
2018-09-17T10:36:50.450Z,52
2018-09-17T10:38:50.384Z,52
2018-09-17T10:40:50.474Z,52
2018-09-17T10:42:50.394Z,52
2018-09-17T10:44:50.439Z,52
2018-09-17T10:46:50.868Z,51
2018-09-17T10:48:49.889Z,51
2018-09-17T10:50:49.909Z,50
2018-09-17T10:52:49.860Z,49
2018-09-17T10:54:49.921Z,49
2018-09-17T10:56:50.200Z,50
2018-09-17T10:58:50.174Z,50
2018-09-17T11:00:50.125Z,50
2018-09-17T11:02:50.090Z,50
2018-09-17T11:04:50.355Z,50
2018-09-17T11:06:50.542Z,50
2018-09-17T11:08:50.457Z,49
2018-09-17T11:10:50.443Z,49
2018-09-17T11:12:50.432Z,49
2018-09-17T11:14:50.383Z,49
2018-09-17T11:16:50.520Z,48
2018-09-17T11:18:50.481Z,48
2018-09-17T11:20:50.470Z,47
2018-09-17T11:22:50.438Z,46
2018-09-17T11:24:50.399Z,46
2018-09-17T11:26:50.479Z,45
2018-09-17T11:28:50.528Z,45
2018-09-17T11:30:50.484Z,45
2018-09-17T11:32:50.437Z,44
2018-09-17T11:34:50.844Z,44
2018-09-17T11:36:50.091Z,44
2018-09-17T11:38:50.011Z,44
2018-09-17T11:40:49.949Z,45
2018-09-17T11:42:50.078Z,44
2018-09-17T11:44:50.090Z,44
2018-09-17T11:46:50.198Z,45
2018-09-17T11:48:50.169Z,43
2018-09-17T11:50:50.184Z,43
2018-09-17T11:52:50.313Z,43
2018-09-17T11:54:50.224Z,43
2018-09-17T11:56:50.351Z,43
2018-09-17T11:58:50.367Z,43
2018-09-17T12:00:50.342Z,42
2018-09-17T12:02:50.415Z,42
2018-09-17T12:04:49.854Z,42
2018-09-17T12:06:50.423Z,42
2018-09-17T12:08:50.475Z,42
2018-09-17T12:10:50.499Z,42
2018-09-17T12:12:50.455Z,41
2018-09-17T12:14:50.454Z,42
2018-09-17T12:16:50.573Z,42
2018-09-17T12:18:50.522Z,41
2018-09-17T12:20:50.686Z,41
2018-09-17T12:22:50.721Z,42
2018-09-17T12:24:50.722Z,42
2018-09-17T12:26:49.986Z,41
2018-09-17T12:28:49.946Z,41
2018-09-17T12:30:49.981Z,41
2018-09-17T12:32:50.085Z,41
2018-09-17T12:34:50.681Z,41
2018-09-17T12:36:49.834Z,40
2018-09-17T12:38:49.884Z,40
2018-09-17T12:40:49.922Z,39
2018-09-17T12:42:50.050Z,39
2018-09-17T12:44:50.152Z,41
2018-09-17T12:46:50.359Z,41
2018-09-17T12:48:50.276Z,41
2018-09-17T12:50:50.305Z,41
2018-09-17T12:52:50.373Z,38
2018-09-17T12:54:50.508Z,38
2018-09-17T12:56:49.849Z,38
2018-09-17T12:58:50.038Z,39
2018-09-17T13:00:49.951Z,39
2018-09-17T13:02:49.964Z,39
2018-09-17T13:04:50.437Z,38
2018-09-17T13:06:50.671Z,38
2018-09-17T13:08:50.696Z,38
2018-09-17T13:10:50.656Z,38
2018-09-17T13:12:50.568Z,38
2018-09-17T13:14:51.027Z,37
2018-09-17T13:16:50.226Z,37
2018-09-17T13:18:50.334Z,38
2018-09-17T13:20:50.422Z,38
2018-09-17T13:22:50.390Z,38
2018-09-17T13:24:50.681Z,38
2018-09-17T13:26:49.896Z,38
2018-09-17T13:28:50.001Z,38
2018-09-17T13:30:50.089Z,38
2018-09-17T13:32:50.145Z,38
2018-09-17T13:34:50.447Z,37
2018-09-17T13:36:50.680Z,38
2018-09-17T13:38:49.839Z,38
2018-09-17T13:40:50.794Z,38
2018-09-17T13:42:49.948Z,37
2018-09-17T13:44:49.965Z,37
2018-09-17T13:46:50.350Z,36
2018-09-17T13:48:50.368Z,36
2018-09-17T13:50:50.395Z,36
2018-09-17T13:52:50.462Z,36
2018-09-17T13:54:50.475Z,36
2018-09-17T13:56:50.644Z,35
2018-09-17T13:58:50.717Z,36
2018-09-17T14:00:50.747Z,36
2018-09-17T14:02:50.016Z,36
2018-09-17T14:04:50.264Z,36
2018-09-17T14:06:50.457Z,35
2018-09-17T14:08:50.391Z,36
2018-09-17T14:10:50.442Z,36
2018-09-17T14:12:50.497Z,36
2018-09-17T14:14:50.712Z,36
2018-09-17T14:16:49.840Z,35
2018-09-17T14:18:49.915Z,36
2018-09-17T14:20:50.174Z,36
2018-09-17T14:22:50.302Z,36
2018-09-17T14:24:50.310Z,36
2018-09-17T14:26:50.512Z,36
2018-09-17T14:28:50.571Z,36
2018-09-17T14:30:50.607Z,36
2018-09-17T14:32:51.144Z,36
2018-09-17T14:34:50.555Z,36
2018-09-17T14:36:50.648Z,35
2018-09-17T14:38:50.639Z,36
2018-09-17T14:40:50.737Z,36
2018-09-17T14:42:49.809Z,36
2018-09-17T14:44:49.981Z,36
2018-09-17T14:46:50.175Z,36
2018-09-17T14:48:50.291Z,36
2018-09-17T14:50:50.304Z,36
2018-09-17T14:52:50.241Z,36
2018-09-17T14:54:50.247Z,36
2018-09-17T14:56:50.393Z,36
2018-09-17T14:58:50.302Z,36
2018-09-17T15:00:50.331Z,35
2018-09-17T15:02:50.348Z,35
2018-09-17T15:04:50.642Z,35
2018-09-17T15:06:49.914Z,36
2018-09-17T15:08:50.841Z,36
2018-09-17T15:10:49.997Z,36
2018-09-17T15:12:50.042Z,36
2018-09-17T15:14:50.245Z,36
2018-09-17T15:16:50.419Z,36
2018-09-17T15:18:50.598Z,36
2018-09-17T15:20:50.660Z,36
2018-09-17T15:22:50.615Z,36
2018-09-17T15:24:50.767Z,35
2018-09-17T15:26:50.096Z,35
2018-09-17T15:28:50.072Z,35
2018-09-17T15:30:50.272Z,35
2018-09-17T15:32:50.318Z,36
2018-09-17T15:34:50.793Z,36
2018-09-17T15:36:50.110Z,35
2018-09-17T15:38:50.065Z,35
2018-09-17T15:40:50.836Z,36
2018-09-17T15:42:49.977Z,36
2018-09-17T15:44:50.076Z,36
2018-09-17T15:46:50.915Z,36
2018-09-17T15:48:50.012Z,36
2018-09-17T15:50:50.018Z,36
2018-09-17T15:52:50.018Z,36
2018-09-17T15:54:50.055Z,37
2018-09-17T15:56:50.150Z,37
2018-09-17T15:58:50.207Z,36
2018-09-17T16:00:50.170Z,36
2018-09-17T16:02:50.534Z,36
2018-09-17T16:04:50.000Z,36
2018-09-17T16:06:50.199Z,36
2018-09-17T16:08:50.872Z,36
2018-09-17T16:10:49.973Z,36
2018-09-17T16:12:50.279Z,36
2018-09-17T16:14:50.298Z,36
2018-09-17T16:16:50.466Z,36
2018-09-17T16:18:50.424Z,37
2018-09-17T16:20:50.377Z,37
2018-09-17T16:22:50.350Z,37
2018-09-17T16:24:50.328Z,37
2018-09-17T16:26:50.516Z,37
2018-09-17T16:28:50.669Z,37
2018-09-17T16:30:50.640Z,37
2018-09-17T16:32:50.694Z,37
2018-09-17T16:34:49.956Z,37
2018-09-17T16:36:50.317Z,37
2018-09-17T16:38:50.330Z,37
2018-09-17T16:40:50.927Z,35.5
2018-09-17T16:42:50.121Z,35.8
2018-09-17T16:44:50.073Z,35.8
2018-09-17T16:46:50.209Z,36.3
2018-09-17T16:48:50.162Z,36.8
2018-09-17T16:50:50.312Z,37.6
2018-09-17T16:52:50.714Z,37.3
2018-09-17T16:54:49.798Z,37.6
2018-09-17T16:56:49.993Z,37.7
2018-09-17T16:58:50.396Z,37.7
2018-09-17T17:00:50.511Z,38.0
2018-09-17T17:02:50.461Z,38.6
2018-09-17T17:04:50.458Z,37.7
2018-09-17T17:06:50.612Z,38.3
2018-09-17T17:08:50.621Z,39.7
2018-09-17T17:10:51.039Z,39.3
2018-09-17T17:12:49.962Z,40.0
2018-09-17T17:14:49.951Z,39.8
2018-09-17T17:16:50.256Z,40.8
2018-09-17T17:18:51.182Z,41.5
2018-09-17T17:20:50.279Z,42.4
2018-09-17T17:22:50.235Z,43.1
2018-09-17T17:24:50.163Z,43.6
2018-09-17T17:26:50.380Z,43.6
2018-09-17T17:28:50.307Z,44.6
2018-09-17T17:30:50.228Z,44.6
2018-09-17T17:32:50.164Z,45.0
2018-09-17T17:34:50.417Z,46.3
2018-09-17T17:36:50.566Z,46.3
2018-09-17T17:38:50.750Z,46.1
2018-09-17T17:40:51.554Z,46.8
2018-09-17T17:42:50.702Z,47.2
2018-09-17T17:44:50.633Z,48.2
2018-09-17T17:46:49.802Z,49.2
2018-09-17T17:48:49.834Z,48.6
2018-09-17T17:50:49.812Z,49.6
2018-09-17T17:52:49.926Z,49.6
2018-09-17T17:54:49.972Z,49.9
2018-09-17T17:56:50.217Z,50.1
2018-09-17T17:58:50.172Z,50.1
2018-09-17T18:00:50.746Z,50.3
2018-09-17T18:02:50.759Z,51.7
2018-09-17T18:04:50.266Z,51.1
2018-09-17T18:06:51.095Z,52.5
2018-09-17T18:08:50.138Z,52.2
2018-09-17T18:10:50.097Z,52.7
2018-09-17T18:12:50.098Z,52.6
2018-09-17T18:14:50.496Z,53.0
2018-09-17T18:16:50.616Z,53.0
2018-09-17T18:18:50.673Z,53.4
2018-09-17T18:20:50.996Z,53.8
2018-09-17T18:22:49.983Z,53.8
2018-09-17T18:24:49.934Z,53.5
2018-09-17T18:26:50.665Z,54.2
2018-09-17T18:28:51.380Z,54.5
2018-09-17T18:30:50.352Z,54.5
2018-09-17T18:32:50.943Z,54.3
2018-09-17T18:34:50.488Z,54.7
2018-09-17T18:36:51.063Z,54.9
2018-09-17T18:38:50.575Z,55.0
2018-09-17T18:40:50.577Z,55.1
2018-09-17T18:42:51.026Z,55.6
2018-09-17T18:44:50.416Z,55.6
2018-09-17T18:46:50.728Z,55.7
2018-09-17T18:48:50.683Z,56.0
2018-09-17T18:50:51.219Z,56.3
2018-09-17T18:52:50.189Z,56.4
2018-09-17T18:54:50.245Z,57.5
2018-09-17T18:56:51.038Z,57.7
2018-09-17T18:58:50.157Z,58.0
2018-09-17T19:00:50.185Z,58.3
2018-09-17T19:02:50.666Z,59.1
2018-09-17T19:04:50.176Z,58.7
2018-09-17T19:06:50.413Z,58.9
2018-09-17T19:08:50.743Z,59.0
2018-09-17T19:10:49.811Z,59.3
2018-09-17T19:12:50.719Z,59.6
2018-09-17T19:14:50.177Z,60.0
2018-09-17T19:16:50.704Z,60.1
2018-09-17T19:18:50.647Z,60.3
2018-09-17T19:20:52.681Z,59.9
2018-09-17T19:22:51.022Z,60.4
2018-09-17T19:24:50.093Z,60.2
2018-09-17T19:26:50.284Z,60.5
2018-09-17T19:28:50.395Z,61.1
2018-09-17T19:30:50.222Z,61.3
2018-09-17T19:32:50.265Z,61.5
2018-09-17T19:34:50.731Z,61.3
2018-09-17T19:36:49.877Z,61.8
2018-09-17T19:38:49.931Z,61.8
2018-09-17T19:40:50.015Z,62.3
2018-09-17T19:42:49.975Z,62.9
2018-09-17T19:44:50.113Z,63.1
2018-09-17T19:46:50.353Z,63.9
2018-09-17T19:48:50.273Z,64.4
2018-09-17T19:50:50.315Z,64.6
2018-09-17T19:52:50.276Z,64.9
2018-09-17T19:54:50.274Z,65.1
2018-09-17T19:56:50.464Z,65.1
2018-09-17T19:58:50.372Z,65.3
2018-09-17T20:00:50.852Z,65.2
2018-09-17T20:02:49.917Z,65.2
2018-09-17T20:04:50.475Z,65.3
2018-09-17T20:06:50.639Z,65.3
2018-09-17T20:08:50.577Z,65.3
2018-09-17T20:10:50.639Z,65.7
2018-09-17T20:12:50.523Z,66.1
2018-09-17T20:14:50.517Z,65.9
2018-09-17T20:16:50.681Z,66.5
2018-09-17T20:18:50.604Z,66.7
2018-09-17T20:20:50.547Z,67.0
2018-09-17T20:22:50.538Z,67.2
2018-09-17T20:24:50.451Z,67.5
2018-09-17T20:26:50.652Z,67.8
2018-09-17T20:28:50.769Z,67.8
2018-09-17T20:30:50.674Z,68.3
2018-09-17T20:32:50.725Z,68.3
2018-09-17T20:34:50.045Z,68.6
2018-09-17T20:36:50.183Z,69.0
2018-09-17T20:38:50.172Z,69.0
2018-09-17T20:40:50.071Z,69.5
2018-09-17T20:42:50.055Z,69.8
2018-09-17T20:44:50.255Z,69.9
2018-09-17T20:46:50.351Z,69.8
2018-09-17T20:48:51.319Z,70.0
2018-09-17T20:50:50.340Z,70.0
2018-09-17T20:52:50.355Z,70.3
2018-09-17T20:54:50.658Z,71.0
2018-09-17T20:56:50.018Z,70.8
2018-09-17T20:58:49.998Z,70.9
2018-09-17T21:00:50.617Z,71.0
2018-09-17T21:02:50.676Z,71.5
2018-09-17T21:04:50.287Z,71.8
2018-09-17T21:06:50.786Z,71.7
2018-09-17T21:08:49.822Z,72.1
2018-09-17T21:10:50.785Z,71.9
2018-09-17T21:12:50.219Z,72.5
2018-09-17T21:14:50.266Z,72.5
2018-09-17T21:16:50.601Z,72.7
2018-09-17T21:18:51.160Z,73.1
2018-09-17T21:20:50.226Z,72.9
2018-09-17T21:22:50.584Z,73.0
2018-09-17T21:24:51.042Z,73.8
2018-09-17T21:26:50.653Z,73.6
2018-09-17T21:28:50.568Z,73.8
2018-09-17T21:30:51.096Z,73.7
2018-09-17T21:32:50.133Z,74.1
2018-09-17T21:34:50.577Z,74.2
2018-09-17T21:36:51.062Z,74.2
2018-09-17T21:38:50.086Z,74.4
2018-09-17T21:40:50.630Z,74.5
2018-09-17T21:42:51.116Z,74.7
2018-09-17T21:44:50.251Z,74.8
2018-09-17T21:46:50.418Z,75.0
2018-09-17T21:48:50.388Z,74.8
2018-09-17T21:50:50.425Z,75.3
2018-09-17T21:52:50.567Z,75.2
2018-09-17T21:54:50.523Z,75.6
2018-09-17T21:56:50.613Z,75.5
2018-09-17T21:58:50.713Z,75.6
2018-09-17T22:00:50.850Z,75.1
2018-09-17T22:02:50.082Z,75.2
2018-09-17T22:04:50.388Z,75.3
2018-09-17T22:06:50.596Z,75.2
2018-09-17T22:08:50.553Z,75.4
2018-09-17T22:10:50.501Z,75.6
2018-09-17T22:12:50.645Z,76.2
2018-09-17T22:14:50.562Z,76.1
2018-09-17T22:16:50.777Z,76.6
2018-09-17T22:18:49.819Z,76.6
2018-09-17T22:20:49.812Z,76.4
2018-09-17T22:22:49.907Z,76.6
2018-09-17T22:24:50.026Z,76.8
2018-09-17T22:26:50.110Z,77.0
2018-09-17T22:28:50.290Z,77.0
2018-09-17T22:30:50.249Z,77.2
2018-09-17T22:32:50.298Z,77.2
2018-09-17T22:34:50.550Z,77.3
2018-09-17T22:36:50.729Z,77.3
2018-09-17T22:38:50.778Z,77.3
2018-09-17T22:40:49.800Z,77.9
2018-09-17T22:42:49.825Z,78.1
2018-09-17T22:44:49.825Z,78.2
2018-09-17T22:46:50.080Z,78.3
2018-09-17T22:48:50.080Z,78.2
2018-09-17T22:50:50.036Z,78.6
2018-09-17T22:52:50.017Z,78.5
2018-09-17T22:54:50.067Z,78.9
2018-09-17T22:56:50.130Z,78.8
2018-09-17T22:58:50.177Z,79.0
2018-09-17T23:00:50.120Z,79.0
2018-09-17T23:02:50.104Z,79.1
2018-09-17T23:04:50.435Z,79.2
2018-09-17T23:06:50.553Z,79.0
2018-09-17T23:08:50.521Z,78.7
2018-09-17T23:10:50.504Z,79.2
2018-09-17T23:12:50.510Z,79.4
2018-09-17T23:14:50.532Z,79.6
2018-09-17T23:16:50.761Z,79.7
2018-09-17T23:18:50.798Z,79.8
2018-09-17T23:20:49.790Z,79.8
2018-09-17T23:22:49.818Z,79.8
2018-09-17T23:24:49.800Z,79.8
2018-09-17T23:26:50.080Z,80.0
2018-09-17T23:28:50.118Z,79.6
2018-09-17T23:30:50.117Z,79.6
2018-09-17T23:32:50.207Z,79.6
2018-09-17T23:34:50.525Z,79.5
2018-09-17T23:36:49.794Z,79.7
2018-09-17T23:38:49.813Z,79.7
2018-09-17T23:40:49.821Z,80.2
2018-09-17T23:42:50.229Z,79.8
2018-09-17T23:44:50.334Z,80.0
2018-09-17T23:46:50.592Z,79.8
2018-09-17T23:48:50.637Z,79.8
2018-09-17T23:50:50.572Z,80.0
2018-09-17T23:52:50.594Z,80.4
2018-09-17T23:54:50.482Z,80.4
2018-09-17T23:56:50.631Z,80.6
2018-09-17T23:58:49.805Z,80.9
